Time;durP1;ratioP1;P1;durP2;ratioP2;P2;SDS_P1;SDS_P2;PMS_P1;PMS_P2;Temp;Humidity;BMP_temperature;BMP_pressure;BME280_temperature;BME280_humidity;BME280_pressure;Samples;Min_cycle;Max_cycle;Signal;HPM_P1;HPM_P2
2023/05/11 00:00:02;;;;;;;13.07;8.20;;;;;;;10.82;100.00;100564.66;685619;28;1430;-60
2023/05/11 00:00:25;;;;;;;12.77;8.00;;;;;;;10.83;100.00;100565.53;687225;28;1020;-61
2023/05/11 00:00:46;;;;;;;13.17;7.90;;;;;;;10.83;100.00;100566.41;688392;28;4363;-60
2023/05/11 00:01:07;;;;;;;13.45;8.27;;;;;;;10.85;100.00;100571.63;689769;28;1466;-60
2023/05/11 00:01:27;;;;;;;12.07;8.00;;;;;;;10.84;100.00;100568.16;689778;28;923;-60
2023/05/11 00:01:48;;;;;;;12.32;7.93;;;;;;;10.87;100.00;100565.50;690384;28;1162;-60
2023/05/11 00:02:08;;;;;;;13.53;8.13;;;;;;;10.89;100.00;100565.47;687456;28;1250;-61
2023/05/11 00:02:28;;;;;;;14.10;7.72;;;;;;;10.87;100.00;100562.88;687218;28;916;-61
2023/05/11 00:02:49;;;;;;;13.63;7.50;;;;;;;10.89;100.00;100570.72;685713;28;1562;-61
2023/05/11 00:03:09;;;;;;;11.47;8.00;;;;;;;10.93;100.00;100561.97;687457;28;1502;-61
2023/05/11 00:03:29;;;;;;;11.05;7.78;;;;;;;10.92;100.00;100570.69;687213;28;880;-61
2023/05/11 00:03:50;;;;;;;12.47;8.07;;;;;;;10.87;100.00;100565.50;683416;28;4370;-61
2023/05/11 00:04:11;;;;;;;13.30;8.35;;;;;;;10.85;100.00;100569.84;684893;28;810;-61
2023/05/11 00:04:31;;;;;;;13.23;8.18;;;;;;;10.85;100.00;100569.84;684165;28;1264;-61
2023/05/11 00:04:53;;;;;;;11.40;7.80;;;;;;;10.82;100.00;100567.28;683237;28;1774;-61
2023/05/11 00:05:13;;;;;;;14.27;7.95;;;;;;;10.83;100.00;100566.41;686688;28;809;-61
2023/05/11 00:05:33;;;;;;;14.90;8.07;;;;;;;10.92;100.00;100569.81;684403;28;1455;-61
2023/05/11 00:05:57;;;;;;;12.65;8.25;;;;;;;10.90;100.00;100565.47;683345;28;1572;-61
2023/05/11 00:06:17;;;;;;;11.88;8.32;;;;;;;10.89;100.00;100568.97;683837;28;920;-61
2023/05/11 00:06:37;;;;;;;13.07;8.03;;;;;;;10.92;100.00;100573.31;683884;28;4499;-60
2023/05/11 00:06:58;;;;;;;14.43;8.27;;;;;;;10.93;100.00;100566.34;683283;28;1447;-61
2023/05/11 00:07:18;;;;;;;13.60;8.53;;;;;;;10.93;100.00;100571.56;685447;28;1052;-61
2023/05/11 00:07:38;;;;;;;13.23;8.20;;;;;;;10.90;100.00;100568.09;686378;28;1308;-61
2023/05/11 00:07:59;;;;;;;14.85;8.27;;;;;;;10.88;100.00;100568.97;686124;28;1566;-60
2023/05/11 00:08:19;;;;;;;15.33;8.30;;;;;;;10.88;100.00;100568.97;687411;28;1326;-60
2023/05/11 00:08:40;;;;;;;14.98;8.07;;;;;;;10.85;100.00;100564.63;687497;28;936;-60
2023/05/11 00:09:00;;;;;;;13.20;7.80;;;;;;;10.84;100.00;100573.38;685732;28;1599;-60
2023/05/11 00:09:20;;;;;;;13.55;8.05;;;;;;;10.83;100.00;100579.47;687359;28;1381;-60
2023/05/11 00:09:41;;;;;;;13.47;7.73;;;;;;;10.83;100.00;100571.63;687226;28;4594;-60
2023/05/11 00:10:01;;;;;;;13.57;7.77;;;;;;;10.83;100.00;100573.38;688571;28;1486;-59
2023/05/11 00:10:21;;;;;;;13.25;7.65;;;;;;;10.81;100.00;100573.38;690260;28;865;-60
2023/05/11 00:10:46;;;;;;;12.40;8.00;;;;;;;10.81;100.00;100569.91;689856;28;1096;-60
2023/05/11 00:11:07;;;;;;;12.13;7.63;;;;;;;10.80;100.00;100571.66;688211;28;1593;-61
2023/05/11 00:11:27;;;;;;;15.50;8.25;;;;;;;10.80;100.00;100568.16;689394;28;1231;-60
2023/05/11 00:11:50;;;;;;;15.07;8.60;;;;;;;10.79;100.00;100574.28;689784;28;924;-60
2023/05/11 00:12:11;;;;;;;13.50;8.57;;;;;;;10.78;100.00;100568.16;689937;28;942;-60
2023/05/11 00:12:31;;;;;;;13.63;8.73;;;;;;;10.79;100.00;100575.16;690066;28;1178;-60
2023/05/11 00:12:52;;;;;;;13.97;8.37;;;;;;;10.79;100.00;100571.69;688059;28;4346;-60
2023/05/11 00:13:12;;;;;;;14.95;8.60;;;;;;;10.79;100.00;100572.53;687058;28;956;-60
2023/05/11 00:13:32;;;;;;;14.60;8.43;;;;;;;10.79;100.00;100575.16;687686;28;762;-60
2023/05/11 00:13:53;;;;;;;14.10;8.57;;;;;;;10.79;100.00;100576.91;686268;28;1506;-60
2023/05/11 00:14:13;;;;;;;15.03;8.10;;;;;;;10.79;100.00;100574.28;687316;28;1155;-60
2023/05/11 00:14:33;;;;;;;16.77;8.43;;;;;;;10.79;100.00;100575.16;687302;28;949;-60
2023/05/11 00:14:54;;;;;;;15.10;8.45;;;;;;;10.78;100.00;100576.03;686378;28;948;-60
2023/05/11 00:15:14;;;;;;;12.67;8.00;;;;;;;10.78;100.00;100573.41;689771;28;885;-61
2023/05/11 00:15:35;;;;;;;13.73;8.40;;;;;;;10.78;100.00;100568.16;690477;28;1298;-60
2023/05/11 00:15:55;;;;;;;17.57;8.37;;;;;;;10.77;100.00;100570.81;688609;28;4296;-60
2023/05/11 00:16:16;;;;;;;15.40;7.80;;;;;;;10.76;100.00;100571.66;687109;28;3591;-60
2023/05/11 00:16:36;;;;;;;13.17;8.20;;;;;;;10.75;100.00;100572.56;685038;28;1294;-60
2023/05/11 00:16:56;;;;;;;14.32;8.40;;;;;;;10.75;100.00;100577.81;683245;28;1918;-60
2023/05/11 00:17:18;;;;;;;13.63;8.00;;;;;;;10.76;100.00;100579.53;684135;28;1185;-60
2023/05/11 00:17:38;;;;;;;12.70;7.97;;;;;;;10.75;100.00;100570.81;684651;28;1187;-60
2023/05/11 00:17:59;;;;;;;12.73;7.73;;;;;;;10.75;100.00;100573.44;683527;28;1589;-60
2023/05/11 00:18:19;;;;;;;14.17;7.90;;;;;;;10.75;100.00;100577.81;687137;28;1017;-60
2023/05/11 00:18:40;;;;;;;14.63;8.18;;;;;;;10.75;100.00;100567.34;687128;28;4383;-60
2023/05/11 00:19:00;;;;;;;13.23;8.45;;;;;;;10.75;100.00;100568.19;685816;28;1489;-60
2023/05/11 00:19:20;;;;;;;12.67;8.63;;;;;;;10.76;100.00;100564.72;686764;28;1096;-60
2023/05/11 00:19:41;;;;;;;14.63;8.53;;;;;;;10.77;100.00;100566.44;687337;28;931;-60
2023/05/11 00:20:02;;;;;;;16.08;8.13;;;;;;;10.78;100.00;100567.31;689225;28;1453;-60
2023/05/11 00:20:22;;;;;;;15.73;8.75;;;;;;;10.78;100.00;100565.56;689881;28;1303;-60
2023/05/11 00:20:43;;;;;;;14.73;8.47;;;;;;;10.78;100.00;100570.78;690514;28;963;-60
2023/05/11 00:21:03;;;;;;;14.18;7.97;;;;;;;10.79;100.00;100567.31;688677;28;1596;-60
2023/05/11 00:21:23;;;;;;;16.37;8.57;;;;;;;10.76;100.00;100569.06;689379;28;968;-60
2023/05/11 00:21:44;;;;;;;15.90;8.95;;;;;;;10.73;100.00;100569.97;689409;28;4393;-60
2023/05/11 00:22:05;;;;;;;13.70;8.55;;;;;;;10.73;100.00;100577.81;688532;28;1494;-59
2023/05/11 00:22:25;;;;;;;14.50;8.67;;;;;;;10.71;100.00;100571.72;690110;28;921;-60
2023/05/11 00:22:46;;;;;;;14.88;9.63;;;;;;;10.70;100.00;100565.63;689826;28;960;-60
2023/05/11 00:23:06;;;;;;;14.53;9.43;;;;;;;10.72;100.00;100569.09;688824;28;1557;-60
2023/05/11 00:23:27;;;;;;;15.88;9.23;;;;;;;10.73;100.00;100564.75;689860;28;957;-60
2023/05/11 00:23:51;;;;;;;14.90;9.03;;;;;;;10.73;100.00;100569.97;689881;28;1342;-60
2023/05/11 00:24:12;;;;;;;15.23;8.77;;;;;;;10.73;100.00;100575.19;690008;28;992;-60
2023/05/11 00:24:32;;;;;;;15.57;8.80;;;;;;;10.72;100.00;100569.09;689882;28;928;-60
2023/05/11 00:24:52;;;;;;;14.50;9.18;;;;;;;10.74;100.00;100574.31;688424;28;4378;-60
2023/05/11 00:25:12;;;;;;;14.63;8.87;;;;;;;10.74;100.00;100566.47;690352;28;1271;-60
2023/05/11 00:25:33;;;;;;;15.50;8.90;;;;;;;10.76;100.00;100575.19;689806;28;857;-60
2023/05/11 00:25:53;;;;;;;16.70;9.20;;;;;;;10.79;100.00;100574.28;685808;28;1762;-60
2023/05/11 00:26:14;;;;;;;15.80;9.60;;;;;;;10.78;100.00;100576.03;687627;28;876;-60
2023/05/11 00:26:36;;;;;;;14.13;9.15;;;;;;;10.78;100.00;100573.41;684214;28;1388;-60
2023/05/11 00:26:56;;;;;;;13.80;8.40;;;;;;;10.76;100.00;100572.56;680896;28;1515;-60
2023/05/11 00:27:16;;;;;;;13.67;8.20;;;;;;;10.78;100.00;100572.53;681948;28;1443;-60
2023/05/11 00:27:37;;;;;;;13.17;8.63;;;;;;;10.78;100.00;100576.03;679405;29;4502;-60
2023/05/11 00:27:59;;;;;;;13.77;8.80;;;;;;;10.79;100.00;100579.53;680587;28;1455;-60
2023/05/11 00:28:21;;;;;;;13.20;8.27;;;;;;;10.78;100.00;100583.84;682955;28;808;-60
2023/05/11 00:28:41;;;;;;;16.95;8.88;;;;;;;10.78;100.00;100570.78;685443;28;992;-60
2023/05/11 00:29:01;;;;;;;14.47;8.83;;;;;;;10.79;100.00;100576.91;681032;28;1667;-60
2023/05/11 00:29:22;;;;;;;13.85;9.05;;;;;;;10.78;100.00;100578.63;685557;28;1037;-59
2023/05/11 00:29:42;;;;;;;15.07;9.33;;;;;;;10.79;100.00;100571.69;687217;28;789;-60
2023/05/11 00:30:03;;;;;;;14.48;8.82;;;;;;;10.80;100.00;100576.00;685788;28;1763;-60
2023/05/11 00:30:23;;;;;;;15.33;9.03;;;;;;;10.79;100.00;100575.16;687267;28;869;-60
2023/05/11 00:30:44;;;;;;;14.93;8.80;;;;;;;10.81;100.00;100573.38;684674;28;4808;-60
2023/05/11 00:31:05;;;;;;;14.73;8.70;;;;;;;10.79;100.00;100569.91;685746;28;1485;-60
2023/05/11 00:31:25;;;;;;;14.13;9.00;;;;;;;10.80;100.00;100576.00;687097;28;837;-60
2023/05/11 00:31:47;;;;;;;14.38;9.27;;;;;;;10.80;100.00;100573.38;686346;28;1330;-60
2023/05/11 00:32:07;;;;;;;15.13;9.02;;;;;;;10.79;100.00;100569.91;685787;28;1616;-60
2023/05/11 00:32:27;;;;;;;13.85;8.95;;;;;;;10.82;100.00;100566.41;687652;28;873;-60
2023/05/11 00:32:50;;;;;;;12.87;8.73;;;;;;;10.87;100.00;100572.50;687382;28;1160;-60
2023/05/11 00:33:10;;;;;;;14.63;9.13;;;;;;;10.94;100.00;100573.28;687309;28;1327;-60
2023/05/11 00:33:31;;;;;;;14.33;8.90;;;;;;;10.96;100.00;100576.78;687439;28;1178;-60
2023/05/11 00:33:53;;;;;;;14.32;9.00;;;;;;;10.94;100.00;100568.06;682725;28;4500;-60
2023/05/11 00:34:16;;;;;;;13.88;9.20;;;;;;;10.90;100.00;100575.06;686877;28;837;-60
2023/05/11 00:34:37;;;;;;;14.32;8.80;;;;;;;10.89;100.00;100571.56;684486;28;1209;-60
2023/05/11 00:34:57;;;;;;;14.52;9.18;;;;;;;10.88;100.00;100568.97;683198;28;1516;-60
2023/05/11 00:35:18;;;;;;;14.83;8.93;;;;;;;10.86;100.00;100573.38;684734;28;1184;-60
2023/05/11 00:35:38;;;;;;;17.00;9.07;;;;;;;10.83;100.00;100566.41;684879;28;842;-60
2023/05/11 00:35:58;;;;;;;15.03;8.97;;;;;;;10.83;100.00;100576.84;683879;28;1577;-60
2023/05/11 00:36:19;;;;;;;13.87;8.90;;;;;;;10.83;100.00;100573.38;687049;28;992;-60
2023/05/11 00:36:41;;;;;;;15.02;9.05;;;;;;;10.83;100.00;100574.25;689543;28;4877;-60
2023/05/11 00:37:03;;;;;;;15.32;9.05;;;;;;;10.83;100.00;100570.78;687762;28;1974;-60
2023/05/11 00:37:23;;;;;;;14.88;9.75;;;;;;;10.84;100.00;100577.72;687380;28;1434;-60
2023/05/11 00:37:44;;;;;;;16.35;9.90;;;;;;;10.83;100.00;100571.63;687400;28;1321;-60
2023/05/11 00:38:05;;;;;;;16.85;9.68;;;;;;;10.84;100.00;100569.88;685993;28;1666;-60
2023/05/11 00:38:26;;;;;;;16.70;9.13;;;;;;;10.84;100.00;100572.50;687071;28;1223;-60
2023/05/11 00:38:48;;;;;;;17.45;9.15;;;;;;;10.81;100.00;100568.13;687457;28;5239;-60
2023/05/11 00:39:10;;;;;;;17.13;9.40;;;;;;;10.82;100.00;100569.88;685648;28;1089;-60
2023/05/11 00:39:37;;;;;;;14.75;9.65;;;;;;;10.82;100.00;100574.25;687912;28;1421;-60
2023/05/11 00:39:57;;;;;;;14.10;9.27;;;;;;;10.81;100.00;100572.50;686735;28;4766;-60
2023/05/11 00:40:20;;;;;;;14.40;9.20;;;;;;;10.82;100.00;100580.34;687142;28;798;-60
2023/05/11 00:40:40;;;;;;;15.90;9.02;;;;;;;10.81;100.00;100573.38;686174;28;909;-60
2023/05/11 00:41:01;;;;;;;15.10;9.03;;;;;;;10.83;100.00;100571.63;680776;28;1616;-60
2023/05/11 00:41:22;;;;;;;13.88;8.90;;;;;;;10.82;100.00;100567.28;681329;28;1124;-60
2023/05/11 00:41:42;;;;;;;17.15;9.60;;;;;;;10.83;100.00;100569.00;683139;28;1302;-60
2023/05/11 00:42:03;;;;;;;15.83;9.63;;;;;;;10.87;100.00;100570.72;683238;28;1683;-60
2023/05/11 00:42:23;;;;;;;16.27;9.98;;;;;;;10.92;100.00;100575.06;682294;28;1206;-60
2023/05/11 00:42:43;;;;;;;16.30;9.57;;;;;;;10.94;100.00;100568.06;685556;28;4569;-60
2023/05/11 00:43:04;;;;;;;18.92;9.27;;;;;;;10.96;100.00;100576.78;684159;28;1449;-60
2023/05/11 00:43:25;;;;;;;17.15;9.13;;;;;;;10.93;100.00;100572.44;685616;28;1319;-60
2023/05/11 00:43:46;;;;;;;15.93;9.13;;;;;;;10.92;100.00;100575.06;684854;28;814;-60
2023/05/11 00:44:06;;;;;;;15.70;8.70;;;;;;;10.94;100.00;100573.28;683618;28;1471;-60
2023/05/11 00:44:26;;;;;;;15.00;8.97;;;;;;;11.04;100.00;100569.72;686884;28;890;-60
2023/05/11 00:44:47;;;;;;;15.53;9.23;;;;;;;11.01;100.00;100573.25;684607;28;1231;-60
2023/05/11 00:45:07;;;;;;;15.43;9.17;;;;;;;11.00;100.00;100570.63;682894;28;1596;-60
2023/05/11 00:45:28;;;;;;;14.85;8.85;;;;;;;11.00;100.00;100568.03;684803;28;1589;-60
2023/05/11 00:45:51;;;;;;;14.93;9.10;;;;;;;10.97;100.00;100573.28;679726;28;5262;-60
2023/05/11 00:46:11;;;;;;;14.65;9.00;;;;;;;10.96;100.00;100574.16;682000;28;1489;-60
2023/05/11 00:46:32;;;;;;;15.88;9.40;;;;;;;10.95;100.00;100575.03;684251;28;1185;-60
2023/05/11 00:46:52;;;;;;;17.00;9.70;;;;;;;10.97;100.00;100574.13;680436;28;1845;-60
2023/05/11 00:47:13;;;;;;;15.77;9.63;;;;;;;10.98;100.00;100567.16;684881;28;882;-60
2023/05/11 00:47:33;;;;;;;18.13;10.37;;;;;;;10.96;100.00;100577.63;681247;29;1410;-60
2023/05/11 00:47:54;;;;;;;17.80;9.85;;;;;;;10.96;100.00;100567.16;675962;29;1527;-60
2023/05/11 00:48:15;;;;;;;17.10;10.07;;;;;;;11.04;100.00;100575.81;679227;29;1513;-59
2023/05/11 00:48:35;;;;;;;16.05;10.00;;;;;;;11.03;100.00;100574.06;676502;29;1046;-60
2023/05/11 00:48:57;;;;;;;14.50;9.80;;;;;;;11.09;100.00;100575.81;680011;28;4312;-59
2023/05/11 00:49:20;;;;;;;17.73;10.18;;;;;;;11.08;100.00;100579.28;682500;28;818;-60
2023/05/11 00:49:40;;;;;;;15.73;9.73;;;;;;;11.15;100.00;100578.34;685393;28;964;-60
2023/05/11 00:50:01;;;;;;;13.07;9.00;;;;;;;11.23;100.00;100567.84;685184;28;1529;-59
2023/05/11 00:50:21;;;;;;;14.43;9.43;;;;;;;11.21;100.00;100577.44;684605;28;1072;-59
2023/05/11 00:50:42;;;;;;;14.40;9.67;;;;;;;11.25;100.00;100569.53;684303;28;731;-60
2023/05/11 00:51:02;;;;;;;13.38;8.63;;;;;;;11.18;100.00;100567.84;682463;28;1439;-60
2023/05/11 00:51:23;;;;;;;14.33;8.57;;;;;;;11.10;100.00;100574.91;686552;28;1259;-60
2023/05/11 00:51:44;;;;;;;15.43;8.90;;;;;;;11.04;100.00;100573.19;687155;28;4384;-60
2023/05/11 00:52:04;;;;;;;14.43;8.88;;;;;;;11.04;100.00;100569.72;684506;28;1819;-59
2023/05/11 00:52:25;;;;;;;13.30;9.00;;;;;;;11.02;100.00;100571.47;686641;28;760;-60
2023/05/11 00:52:46;;;;;;;14.18;9.52;;;;;;;11.05;100.00;100568.88;685710;28;1086;-61
2023/05/11 00:53:07;;;;;;;13.35;8.98;;;;;;;11.03;100.00;100568.00;681477;28;1570;-61
2023/05/11 00:53:28;;;;;;;13.10;8.77;;;;;;;11.02;100.00;100571.47;682877;28;1371;-63
2023/05/11 00:53:49;;;;;;;13.83;9.10;;;;;;;11.03;100.00;100573.22;682553;28;1151;-62
2023/05/11 00:54:14;;;;;;;12.88;8.90;;;;;;;11.05;100.00;100576.72;682013;28;1589;-63
2023/05/11 00:54:34;;;;;;;13.32;8.45;;;;;;;11.01;100.00;100575.00;680412;29;1252;-61
2023/05/11 00:54:55;;;;;;;14.13;8.50;;;;;;;11.02;100.00;100579.31;680614;28;4694;-62
2023/05/11 00:55:18;;;;;;;17.13;8.38;;;;;;;10.94;100.00;100571.56;685463;28;1095;-60
2023/05/11 00:55:39;;;;;;;12.32;7.68;;;;;;;10.92;100.00;100578.53;684575;28;1317;-59
2023/05/11 00:56:00;;;;;;;12.73;7.80;;;;;;;10.87;100.00;100582.94;683463;28;1463;-58
2023/05/11 00:56:22;;;;;;;13.65;8.35;;;;;;;10.90;100.00;100581.16;684637;28;1304;-57
2023/05/11 00:56:43;;;;;;;13.05;8.77;;;;;;;10.91;100.00;100571.59;681730;29;1236;-56
2023/05/11 00:57:04;;;;;;;13.63;8.55;;;;;;;10.95;100.00;100575.91;680052;28;1919;-56
2023/05/11 00:57:25;;;;;;;15.85;8.52;;;;;;;10.90;100.00;100581.16;680798;28;1157;-57
2023/05/11 00:57:45;;;;;;;16.27;8.07;;;;;;;10.83;100.00;100570.78;683742;28;4529;-57
2023/05/11 00:58:06;;;;;;;15.73;8.03;;;;;;;10.85;100.00;100575.09;683403;28;1537;-57
2023/05/11 00:58:27;;;;;;;15.20;7.75;;;;;;;10.83;100.00;100574.25;684981;28;813;-57
2023/05/11 00:58:47;;;;;;;14.55;7.72;;;;;;;10.80;100.00;100570.78;683645;28;1209;-57
2023/05/11 00:59:08;;;;;;;17.13;8.10;;;;;;;10.81;100.00;100573.38;683048;28;1504;-57
2023/05/11 00:59:29;;;;;;;13.73;7.85;;;;;;;10.85;100.00;100569.00;683837;28;759;-57
2023/05/11 00:59:49;;;;;;;11.77;7.47;;;;;;;10.92;100.00;100567.22;684422;28;877;-57
2023/05/11 01:00:10;;;;;;;11.30;7.45;;;;;;;10.91;100.00;100576.81;685340;28;948;-57
2023/05/11 01:00:31;;;;;;;13.23;7.18;;;;;;;10.85;100.00;100577.69;685382;28;1080;-58
2023/05/11 01:00:51;;;;;;;11.60;7.17;;;;;;;10.88;100.00;100574.19;683469;28;4773;-57
2023/05/11 01:01:13;;;;;;;11.52;7.00;;;;;;;10.82;100.00;100567.28;685056;28;952;-57
2023/05/11 01:01:34;;;;;;;11.40;7.43;;;;;;;10.77;100.00;100571.66;685800;28;813;-58
2023/05/11 01:01:56;;;;;;;12.77;7.18;;;;;;;10.76;100.00;100577.78;684295;28;1589;-57
2023/05/11 01:02:17;;;;;;;14.32;7.68;;;;;;;10.76;100.00;100569.06;686536;28;1337;-57
2023/05/11 01:02:38;;;;;;;13.13;7.53;;;;;;;10.75;100.00;100577.81;687273;28;1411;-58
2023/05/11 01:03:00;;;;;;;12.65;7.43;;;;;;;10.72;100.00;100578.69;686429;28;1575;-58
2023/05/11 01:03:20;;;;;;;13.50;7.88;;;;;;;10.70;100.00;100572.59;687090;28;921;-58
2023/05/11 01:03:41;;;;;;;13.07;8.17;;;;;;;10.75;100.00;100573.44;686900;28;4297;-58
2023/05/11 01:04:02;;;;;;;11.27;7.35;;;;;;;10.84;100.00;100573.38;685978;28;1589;-57
2023/05/11 01:04:23;;;;;;;11.98;7.57;;;;;;;10.88;100.00;100571.59;687306;28;830;-58
2023/05/11 01:04:44;;;;;;;11.43;7.40;;;;;;;10.88;100.00;100568.97;687073;28;956;-58
2023/05/11 01:05:05;;;;;;;12.93;7.47;;;;;;;10.88;100.00;100575.09;683257;28;1507;-58
2023/05/11 01:05:39;;;;;;;14.30;7.50;;;;;;;10.86;100.00;100570.75;684373;28;901;-58
2023/05/11 01:06:04;;;;;;;11.95;7.65;;;;;;;10.92;100.00;100567.22;682265;28;1510;-58
2023/05/11 01:06:34;;;;;;;12.85;7.80;;;;;;;10.95;100.00;100568.06;683960;28;1262;-58
2023/05/11 01:07:08;;;;;;;13.38;8.02;;;;;;;10.95;100.00;100567.19;682777;28;4366;-61
2023/05/11 01:07:53;;;;;;;14.35;6.97;;;;;;;10.83;100.00;100576.00;683832;28;1383;-58
2023/05/11 01:08:46;;;;;;;12.05;7.03;;;;;;;10.78;100.00;100576.03;684249;28;1518;-59
2023/05/11 01:09:17;;;;;;;11.38;7.60;;;;;;;10.79;100.00;100564.69;675369;29;1384;-59
2023/05/11 01:09:53;;;;;;;12.35;6.97;;;;;;;10.83;100.00;100569.00;677047;28;4892;-59
2023/05/11 01:10:26;;;;;;;10.98;7.40;;;;;;;10.78;100.00;100568.16;689888;28;956;-58
2023/05/11 01:11:01;;;;;;;12.18;7.20;;;;;;;10.75;100.00;100572.56;686313;28;1171;-59
2023/05/11 01:11:50;;;;;;;14.40;7.57;;;;;;;10.82;100.00;100569.88;687000;28;1239;-59
2023/05/11 01:12:22;;;;;;;16.23;7.45;;;;;;;10.78;100.00;100570.78;683611;28;1299;-59
2023/05/11 01:13:09;;;;;;;15.18;7.60;;;;;;;10.82;100.00;100575.13;685345;28;4593;-59
2023/05/11 01:13:36;;;;;;;12.88;7.38;;;;;;;10.81;100.00;100573.38;679606;29;965;-59
2023/05/11 01:14:05;;;;;;;13.23;7.45;;;;;;;10.85;100.00;100576.84;679575;28;1725;-59
2023/05/11 01:14:38;;;;;;;13.30;7.18;;;;;;;10.80;100.00;100581.22;684350;28;1077;-59
2023/05/11 01:15:08;;;;;;;13.15;7.63;;;;;;;10.86;100.00;100571.59;682037;28;1587;-59
2023/05/11 01:15:40;;;;;;;12.43;7.60;;;;;;;10.92;100.00;100577.69;680694;29;1423;-59
2023/05/11 01:16:24;;;;;;;11.55;7.40;;;;;;;10.83;100.00;100576.84;678692;28;6383;-58
2023/05/11 01:16:55;;;;;;;12.15;7.47;;;;;;;10.87;100.00;100575.97;683889;28;1910;-60
2023/05/11 01:17:26;;;;;;;11.93;7.88;;;;;;;10.86;100.00;100582.06;683546;28;850;-60
2023/05/11 01:18:15;;;;;;;14.40;7.38;;;;;;;10.83;100.00;100582.09;683455;28;1168;-59
2023/05/11 01:18:42;;;;;;;11.77;7.65;;;;;;;10.81;100.00;100578.59;679737;29;1616;-59
2023/05/11 01:19:31;;;;;;;13.32;7.90;;;;;;;10.90;100.00;100581.16;682301;28;4934;-59
2023/05/11 01:19:55;;;;;;;16.00;7.50;;;;;;;10.92;100.00;100581.16;685486;28;1508;-59
2023/05/11 01:20:24;;;;;;;12.75;7.63;;;;;;;10.85;100.00;100580.31;686379;28;1296;-59
2023/05/11 01:20:50;;;;;;;12.27;7.55;;;;;;;10.83;100.00;100578.63;687888;28;1036;-60
2023/05/11 01:21:14;;;;;;;13.77;8.07;;;;;;;10.83;100.00;100582.09;687956;28;2461;-60
2023/05/11 01:21:36;;;;;;;12.82;7.78;;;;;;;10.85;100.00;100580.31;687566;28;1265;-60
2023/05/11 01:21:57;;;;;;;12.25;8.00;;;;;;;10.85;100.00;100576.84;685520;28;4824;-60
2023/05/11 01:22:28;;;;;;;12.88;7.50;;;;;;;10.81;100.00;100580.34;682288;28;1634;-59
2023/05/11 01:23:04;;;;;;;12.10;7.15;;;;;;;10.84;100.00;100583.84;685056;28;2239;-60
2023/05/11 01:23:37;;;;;;;14.73;7.88;;;;;;;10.81;100.00;100575.13;684288;28;1415;-60
2023/05/11 01:24:24;;;;;;;13.82;8.10;;;;;;;10.86;100.00;100581.22;686288;28;1510;-60
2023/05/11 01:25:12;;;;;;;12.80;7.60;;;;;;;10.82;100.00;100582.97;685515;28;5053;-60
2023/05/11 01:25:36;;;;;;;10.88;7.30;;;;;;;10.85;100.00;100582.94;681992;29;1346;-61
2023/05/11 01:26:07;;;;;;;12.70;7.47;;;;;;;10.87;100.00;100580.34;683157;28;1491;-60
2023/05/11 01:26:56;;;;;;;14.07;7.90;;;;;;;10.80;100.00;100582.13;682382;29;1234;-61
2023/05/11 01:28:01;;;;;;;14.02;7.38;;;;;;;10.70;100.00;100581.31;681627;28;921;-60
2023/05/11 01:28:46;;;;;;;14.43;6.80;;;;;;;10.74;100.00;100582.16;687131;28;4731;-61
2023/05/11 01:29:21;;;;;;;10.63;6.15;;;;;;;10.73;100.00;100586.53;688279;28;1549;-60
2023/05/11 01:30:30;;;;;;;10.48;6.35;;;;;;;10.65;100.00;100577.00;689261;28;1395;-60
2023/05/11 01:30:54;;;;;;;12.40;6.82;;;;;;;10.53;100.00;100586.63;680030;29;4420;-61
2023/05/11 01:31:16;;;;;;;12.30;6.85;;;;;;;10.51;100.00;100577.09;681936;28;1891;-61
2023/05/11 01:31:41;;;;;;;10.85;6.68;;;;;;;10.50;100.00;100577.94;685750;28;1546;-61
2023/05/11 01:32:09;;;;;;;11.80;6.53;;;;;;;10.51;100.00;100585.78;684406;28;1643;-61
2023/05/11 01:32:32;;;;;;;16.90;7.22;;;;;;;10.51;100.00;100575.31;686284;28;892;-61
2023/05/11 01:32:57;;;;;;;12.48;6.68;;;;;;;10.53;100.00;100578.78;683477;28;1656;-61
2023/05/11 01:33:23;;;;;;;16.83;7.03;;;;;;;10.51;100.00;100579.69;687395;28;2046;-60
2023/05/11 01:33:52;;;;;;;17.85;7.32;;;;;;;10.48;100.00;100583.19;685504;28;4538;-60
2023/05/11 01:34:18;;;;;;;11.18;6.22;;;;;;;10.52;100.00;100581.41;687662;28;888;-61
2023/05/11 01:34:40;;;;;;;10.90;6.68;;;;;;;10.60;100.00;100576.16;687484;28;1154;-61
2023/05/11 01:35:08;;;;;;;11.38;6.43;;;;;;;10.67;100.00;100580.47;683330;28;1501;-60
2023/05/11 01:35:34;;;;;;;11.48;6.30;;;;;;;10.66;100.00;100579.59;684950;28;1024;-61
2023/05/11 01:36:02;;;;;;;10.48;6.32;;;;;;;10.68;100.00;100583.06;681475;28;1642;-61
2023/05/11 01:36:33;;;;;;;12.18;6.30;;;;;;;10.67;100.00;100576.09;679445;29;1277;-60
2023/05/11 01:37:03;;;;;;;11.32;6.18;;;;;;;10.68;100.00;100583.06;680876;28;4464;-60
2023/05/11 01:37:26;;;;;;;12.00;6.10;;;;;;;10.62;100.00;100575.28;685301;28;1236;-60
2023/05/11 01:37:53;;;;;;;11.15;6.15;;;;;;;10.59;100.00;100577.88;684976;28;2085;-60
2023/05/11 01:38:17;;;;;;;11.13;6.38;;;;;;;10.54;100.00;100577.91;685352;28;896;-60
2023/05/11 01:38:41;;;;;;;11.57;5.70;;;;;;;10.52;100.00;100584.03;685817;28;1234;-60
2023/05/11 01:39:06;;;;;;;13.70;5.90;;;;;;;10.51;100.00;100583.16;684831;28;5335;-61
2023/05/11 01:39:36;;;;;;;11.20;5.53;;;;;;;10.50;100.00;100588.41;685760;28;1288;-60
2023/05/11 01:40:00;;;;;;;9.88;5.95;;;;;;;10.48;100.00;100584.91;687084;28;4949;-60
2023/05/11 01:40:24;;;;;;;10.73;6.25;;;;;;;10.46;100.00;100589.31;686639;28;1516;-60
2023/05/11 01:40:51;;;;;;;11.45;6.20;;;;;;;10.42;100.00;100580.59;680442;28;1183;-60
2023/05/11 01:41:16;;;;;;;10.63;5.70;;;;;;;10.44;100.00;100583.19;682025;29;1269;-60
2023/05/11 01:41:39;;;;;;;10.45;6.07;;;;;;;10.44;100.00;100585.81;684299;28;894;-60
2023/05/11 01:42:07;;;;;;;11.93;5.80;;;;;;;10.42;100.00;100584.97;678133;29;1768;-60
2023/05/11 01:42:49;;;;;;;11.27;5.72;;;;;;;10.38;100.00;100584.09;681241;29;1340;-60
2023/05/11 01:43:17;;;;;;;11.38;6.00;;;;;;;10.39;100.00;100588.47;684324;28;4791;-61
2023/05/11 01:43:39;;;;;;;8.93;5.65;;;;;;;10.40;100.00;100577.13;685999;28;926;-60
2023/05/11 01:44:10;;;;;;;9.98;5.60;;;;;;;10.47;100.00;100594.53;683498;28;1446;-60
2023/05/11 01:44:33;;;;;;;9.57;5.60;;;;;;;10.50;100.00;100589.25;684662;28;877;-61
2023/05/11 01:44:56;;;;;;;11.50;5.82;;;;;;;10.57;100.00;100582.25;683390;28;1596;-60
2023/05/11 01:45:18;;;;;;;9.73;6.00;;;;;;;10.58;100.00;100589.22;684848;28;1115;-60
2023/05/11 01:45:42;;;;;;;9.70;5.93;;;;;;;10.52;100.00;100587.53;684253;28;4443;-60
2023/05/11 01:46:05;;;;;;;10.63;6.13;;;;;;;10.51;100.00;100582.31;686395;28;1849;-60
2023/05/11 01:46:29;;;;;;;9.90;6.18;;;;;;;10.56;100.00;100590.97;687503;28;876;-61
2023/05/11 01:46:50;;;;;;;10.20;5.97;;;;;;;10.54;100.00;100587.50;687213;28;1545;-61
2023/05/11 01:47:12;;;;;;;8.98;5.72;;;;;;;10.48;100.00;100580.59;686390;28;1506;-61
2023/05/11 01:47:36;;;;;;;9.32;6.00;;;;;;;10.47;100.00;100586.69;689381;28;848;-61
2023/05/11 01:47:58;;;;;;;10.30;6.03;;;;;;;10.44;100.00;100586.69;689081;28;1580;-60
2023/05/11 01:48:29;;;;;;;9.45;5.70;;;;;;;10.41;100.00;100584.09;686560;28;1498;-60
2023/05/11 01:48:53;;;;;;;9.75;5.70;;;;;;;10.39;100.00;100585.84;682340;28;4304;-61
2023/05/11 01:49:16;;;;;;;9.25;5.50;;;;;;;10.42;100.00;100580.59;685424;28;1096;-61
2023/05/11 01:49:39;;;;;;;9.98;5.70;;;;;;;10.41;100.00;100581.47;682547;29;897;-61
2023/05/11 01:50:01;;;;;;;10.45;5.80;;;;;;;10.39;100.00;100580.63;681128;28;1510;-61
2023/05/11 01:50:24;;;;;;;9.95;5.75;;;;;;;10.36;100.00;100585.88;684889;28;1136;-61
2023/05/11 01:50:46;;;;;;;9.48;5.97;;;;;;;10.33;100.00;100580.63;686503;28;974;-61
2023/05/11 01:51:08;;;;;;;9.57;5.85;;;;;;;10.31;100.00;100582.38;683584;28;1446;-61
2023/05/11 01:51:33;;;;;;;9.68;5.60;;;;;;;10.30;100.00;100580.63;685691;28;1256;-61